Terminal Aerodrome Forecast
Issued by NWS Louisville, KY

Home | Current Version | Previous Version | Text Only | Print | Product List | Glossary Off
Versions: 1 2 3 4 5 6 7 8 9 10 11 12 13 14 15 16 17 18 19 20

000
FTUS43 KLMK 281100
TAFSDF
TAF
KSDF 281120Z 2812/2918 09004KT P6SM FEW250
     FM281700 13006KT P6SM SCT250
     FM290500 16009KT P6SM OVC250
     FM291100 22012KT P6SM OVC030=

USA.gov is the U.S. government's official web portal to all federal, state and local government web resources and services.